Time;durP1;ratioP1;P1;durP2;ratioP2;P2;SDS_P1;SDS_P2;PMS_P1;PMS_P2;Temp;Humidity;BMP_temperature;BMP_pressure;BME280_temperature;BME280_humidity;BME280_pressure;Samples;Min_cycle;Max_cycle;Signal;HPM_P1;HPM_P2
2022/12/21 00:00:54;;;;;;;5.33;1.80;;;;;;;10.50;100.00;98553.06;4954850;28;20623;-59
2022/12/21 00:03:22;;;;;;;7.23;2.00;;;;;;;10.47;100.00;98560.22;4952182;28;20221;-59
2022/12/21 00:05:49;;;;;;;4.13;2.10;;;;;;;10.42;100.00;98561.66;4954052;28;20230;-58
2022/12/21 00:08:15;;;;;;;4.93;2.13;;;;;;;10.37;100.00;98563.84;4949821;28;20230;-59
2022/12/21 00:10:42;;;;;;;5.77;2.07;;;;;;;10.36;100.00;98549.16;4951174;28;20631;-62
2022/12/21 00:13:08;;;;;;;3.50;2.10;;;;;;;10.36;100.00;98555.22;4951386;28;20627;-58
2022/12/21 00:15:35;;;;;;;5.20;2.03;;;;;;;10.35;100.00;98556.19;4958580;28;20715;-59
2022/12/21 00:18:02;;;;;;;5.07;2.07;;;;;;;10.32;100.00;98553.88;4946902;28;20322;-58
2022/12/21 00:20:30;;;;;;;4.97;1.97;;;;;;;10.30;100.00;98550.59;4951971;28;20737;-59
2022/12/21 00:22:56;;;;;;;6.40;2.17;;;;;;;10.36;100.00;98557.00;4949550;28;20702;-59
2022/12/21 00:25:23;;;;;;;2.93;1.70;;;;;;;10.29;100.00;98547.16;4952113;28;20827;-58
2022/12/21 00:27:49;;;;;;;5.47;2.03;;;;;;;10.29;100.00;98538.53;4953693;28;20734;-59
2022/12/21 00:30:16;;;;;;;4.40;1.70;;;;;;;10.29;100.00;98541.94;4948121;28;20229;-59
2022/12/21 00:32:43;;;;;;;3.90;1.77;;;;;;;10.32;100.00;98533.00;4953869;28;20285;-59
2022/12/21 00:35:10;;;;;;;6.03;2.00;;;;;;;10.32;100.00;98528.59;4949136;28;20317;-59
2022/12/21 00:37:37;;;;;;;4.43;1.77;;;;;;;10.30;100.00;98545.38;4966394;28;20226;-59
2022/12/21 00:40:06;;;;;;;4.33;1.67;;;;;;;10.29;100.00;98535.94;4948460;28;20286;-59
2022/12/21 00:42:33;;;;;;;2.97;1.70;;;;;;;10.28;100.00;98542.13;4937674;28;20634;-58
2022/12/21 00:44:59;;;;;;;3.00;1.60;;;;;;;10.28;100.00;98534.28;4942326;28;20239;-58
2022/12/21 00:47:26;;;;;;;3.65;1.90;;;;;;;10.32;100.00;98536.44;4957883;28;20459;-63
2022/12/21 00:49:52;;;;;;;2.90;1.80;;;;;;;10.28;100.00;98526.47;4950997;28;20229;-58
2022/12/21 00:52:19;;;;;;;2.87;1.70;;;;;;;10.30;100.00;98529.72;4961947;28;20226;-59
2022/12/21 00:54:47;;;;;;;3.27;1.60;;;;;;;10.32;100.00;98514.75;4964546;28;20248;-59
2022/12/21 00:57:14;;;;;;;2.53;1.70;;;;;;;10.32;100.00;98525.19;4959734;28;20847;-58
2022/12/21 00:59:41;;;;;;;3.67;1.67;;;;;;;10.32;100.00;98527.78;4965037;28;20215;-59
2022/12/21 01:02:08;;;;;;;1.90;1.60;;;;;;;10.40;100.00;98525.28;4960334;28;20297;-59
2022/12/21 01:04:34;;;;;;;4.23;1.20;;;;;;;10.32;100.00;98520.78;4963656;28;20250;-60
2022/12/21 01:07:01;;;;;;;3.90;1.47;;;;;;;10.36;100.00;98530.91;4961344;28;20225;-59
2022/12/21 01:09:27;;;;;;;2.53;1.30;;;;;;;10.31;100.00;98524.34;4964654;28;20698;-59
2022/12/21 01:11:56;;;;;;;4.50;1.37;;;;;;;10.25;100.00;98530.19;4963974;28;20258;-59
2022/12/21 01:17:05;;;;;;;3.50;1.17;;;;;;;10.30;100.00;98516.69;5447221;23;20343;-59
2022/12/21 01:19:31;;;;;;;2.90;1.30;;;;;;;10.31;100.00;98519.13;4976812;28;21145;-58
2022/12/21 01:21:58;;;;;;;4.03;1.17;;;;;;;10.31;100.00;98513.13;4981602;28;20255;-59
2022/12/21 01:24:27;;;;;;;2.60;1.30;;;;;;;10.24;100.00;98523.31;4980172;28;20233;-59
2022/12/21 01:26:54;;;;;;;1.97;1.10;;;;;;;10.28;100.00;98531.69;4975935;28;20229;-59
2022/12/21 01:29:22;;;;;;;3.70;1.10;;;;;;;10.27;100.00;98532.66;4963625;28;20233;-59
2022/12/21 01:31:48;;;;;;;1.80;1.07;;;;;;;10.29;100.00;98535.94;4964047;28;20686;-59
2022/12/21 01:34:15;;;;;;;2.17;1.30;;;;;;;10.30;100.00;98533.16;4961421;28;20238;-58
2022/12/21 01:36:42;;;;;;;1.37;1.07;;;;;;;10.29;100.00;98538.53;4968474;28;20717;-58
2022/12/21 01:39:08;;;;;;;3.70;1.20;;;;;;;10.36;100.00;98544.78;4961459;28;20245;-58
2022/12/21 01:41:35;;;;;;;3.23;1.10;;;;;;;10.33;100.00;98539.88;4964259;28;20238;-59
2022/12/21 01:44:03;;;;;;;2.57;1.27;;;;;;;10.38;100.00;98542.84;4963021;28;20229;-58
2022/12/21 01:46:34;;;;;;;4.40;1.20;;;;;;;10.31;100.00;98536.59;4963847;28;20717;-59
2022/12/21 01:49:11;;;;;;;1.47;1.03;;;;;;;10.36;100.00;98536.13;4961409;28;20285;-58
2022/12/21 01:51:39;;;;;;;2.23;1.23;;;;;;;10.30;100.00;98532.34;4965779;28;20221;-59
2022/12/21 01:54:13;;;;;;;2.03;1.00;;;;;;;10.28;100.00;98537.69;4961244;28;20237;-59
2022/12/21 01:56:44;;;;;;;3.67;1.20;;;;;;;10.26;100.00;98531.00;4963120;28;20803;-59
2022/12/21 01:59:16;;;;;;;2.80;1.20;;;;;;;10.24;100.00;98520.72;4961185;28;20556;-58
2022/12/21 02:01:45;;;;;;;1.33;1.20;;;;;;;10.24;100.00;98530.34;4963590;28;20796;-58
2022/12/21 02:04:12;;;;;;;1.60;1.03;;;;;;;10.24;100.00;98515.50;4962621;28;20222;-58
2022/12/21 02:06:45;;;;;;;1.50;1.00;;;;;;;10.23;100.00;98516.47;4967300;28;20245;-59
2022/12/21 02:09:14;;;;;;;1.90;1.17;;;;;;;10.26;100.00;98521.38;4966200;28;20238;-59
2022/12/21 02:11:41;;;;;;;3.27;1.10;;;;;;;10.25;100.00;98517.13;4968752;28;20575;-59
2022/12/21 02:14:11;;;;;;;1.60;1.20;;;;;;;10.25;100.00;98530.19;4966156;28;20308;-59
2022/12/21 02:16:48;;;;;;;1.23;0.93;;;;;;;10.26;100.00;98517.97;4968787;28;20563;-62
2022/12/21 02:19:50;;;;;;;1.07;0.90;;;;;;;10.24;100.00;98520.72;4980684;28;20242;-59
2022/12/21 02:22:27;;;;;;;2.13;0.90;;;;;;;10.27;100.00;98527.44;4965315;28;20235;-58
2022/12/21 02:25:17;;;;;;;1.07;0.90;;;;;;;10.24;100.00;98523.31;4979884;28;20245;-59
2022/12/21 02:28:07;;;;;;;4.53;0.90;;;;;;;10.28;100.00;98518.63;4966500;28;20233;-59
2022/12/21 02:30:53;;;;;;;2.00;0.90;;;;;;;10.27;100.00;98517.00;4964068;28;20696;-59
2022/12/21 02:33:31;;;;;;;1.10;0.90;;;;;;;10.31;100.00;98513.13;4965624;28;20237;-60
2022/12/21 02:36:12;;;;;;;2.07;1.10;;;;;;;10.27;100.00;98511.78;4965010;28;20234;-59
2022/12/21 02:38:50;;;;;;;2.83;0.97;;;;;;;10.22;100.00;98511.41;4965489;28;20230;-59
2022/12/21 02:41:29;;;;;;;1.37;0.80;;;;;;;10.24;100.00;98505.06;4962998;28;20235;-59
2022/12/21 02:44:14;;;;;;;1.27;0.80;;;;;;;10.28;100.00;98506.41;4950569;28;20305;-59
2022/12/21 02:46:58;;;;;;;1.23;0.67;;;;;;;10.30;100.00;98488.00;4966859;28;20241;-58
2022/12/21 02:49:31;;;;;;;1.47;0.97;;;;;;;10.30;100.00;98480.97;4964196;28;20238;-59
2022/12/21 02:52:04;;;;;;;1.47;0.70;;;;;;;10.31;100.00;98492.25;4963617;28;20717;-59
2022/12/21 02:54:31;;;;;;;1.27;0.73;;;;;;;10.30;100.00;98488.00;4982609;28;20233;-58
2022/12/21 02:56:59;;;;;;;1.53;0.70;;;;;;;10.29;100.00;98492.38;4963619;28;20317;-59
2022/12/21 02:59:32;;;;;;;2.90;1.23;;;;;;;10.27;100.00;98493.50;4966606;28;20736;-57
2022/12/21 03:02:23;;;;;;;3.40;0.70;;;;;;;10.28;100.00;98493.34;4962583;28;20261;-59
2022/12/21 03:05:12;;;;;;;1.13;0.70;;;;;;;10.27;100.00;98493.50;4966402;28;20245;-59
2022/12/21 03:07:52;;;;;;;1.43;0.90;;;;;;;10.38;100.00;98493.28;4964127;28;20249;-59
2022/12/21 03:10:32;;;;;;;2.10;0.80;;;;;;;10.39;100.00;98494.06;4963834;28;20697;-59
2022/12/21 03:13:10;;;;;;;1.47;0.80;;;;;;;10.37;100.00;98489.03;4953816;28;20261;-59
2022/12/21 03:15:48;;;;;;;1.90;0.80;;;;;;;10.33;100.00;98498.94;4966327;28;20239;-60
2022/12/21 03:18:26;;;;;;;1.20;0.60;;;;;;;10.34;100.00;98494.53;4962759;28;20241;-59
2022/12/21 03:21:00;;;;;;;1.13;0.80;;;;;;;10.37;100.00;98485.59;4962682;28;20735;-59
2022/12/21 03:23:32;;;;;;;1.13;0.60;;;;;;;10.44;100.00;98479.66;4968019;28;20862;-59
2022/12/21 03:26:04;;;;;;;1.27;0.60;;;;;;;10.47;100.00;98484.56;4964688;28;20225;-59
2022/12/21 03:28:34;;;;;;;2.73;0.70;;;;;;;10.42;100.00;98489.41;4967630;28;20237;-59
2022/12/21 03:31:05;;;;;;;0.90;0.77;;;;;;;10.44;100.00;98482.25;4964671;28;20278;-59
2022/12/21 03:33:39;;;;;;;1.00;0.70;;;;;;;10.48;100.00;98486.19;4966396;28;20297;-59
2022/12/21 03:36:11;;;;;;;2.33;0.60;;;;;;;10.46;100.00;98485.53;4963982;28;20242;-58
2022/12/21 03:38:43;;;;;;;1.57;0.70;;;;;;;10.48;100.00;98487.97;4967212;28;20226;-59
2022/12/21 03:41:15;;;;;;;1.77;0.73;;;;;;;10.44;100.00;98479.66;4964471;28;20226;-59
2022/12/21 03:43:43;;;;;;;0.90;0.70;;;;;;;10.43;100.00;98480.63;4965045;28;20260;-58
2022/12/21 03:46:15;;;;;;;0.83;0.60;;;;;;;10.49;100.00;98484.38;4963782;28;20244;-58
2022/12/21 03:48:50;;;;;;;1.73;0.60;;;;;;;10.48;100.00;98480.16;4967701;28;21223;-58
2022/12/21 03:51:23;;;;;;;2.33;0.70;;;;;;;10.48;100.00;98473.16;4964410;28;20237;-60
2022/12/21 03:53:53;;;;;;;1.33;0.70;;;;;;;10.51;100.00;98472.00;4966784;28;20226;-59
2022/12/21 03:56:24;;;;;;;2.20;0.70;;;;;;;10.51;100.00;98474.63;4964952;28;20237;-58
2022/12/21 03:58:51;;;;;;;1.53;1.00;;;;;;;10.47;100.00;98475.91;4967006;28;20340;-58
2022/12/21 04:01:26;;;;;;;2.40;0.63;;;;;;;10.46;100.00;98463.81;4964321;28;20312;-59
2022/12/21 04:03:59;;;;;;;2.40;0.77;;;;;;;10.50;100.00;98472.97;4967008;28;20296;-59
2022/12/21 04:06:32;;;;;;;2.40;0.97;;;;;;;10.48;100.00;98482.75;4964251;28;20261;-59
2022/12/21 04:08:59;;;;;;;2.17;0.70;;;;;;;10.45;100.00;98473.44;4963161;28;20237;-59
2022/12/21 04:14:18;;;;;;;1.20;0.90;;;;;;;10.47;100.00;98476.72;4964625;28;20253;-59
2022/12/21 04:16:45;;;;;;;2.00;0.90;;;;;;;10.45;100.00;98481.28;4966152;28;20308;-59
2022/12/21 04:21:57;;;;;;;3.60;1.00;;;;;;;10.53;100.00;98469.25;4963494;28;20372;-59
2022/12/21 04:29:54;;;;;;;1.40;0.83;;;;;;;10.50;100.00;98472.19;4962828;28;20230;-58
2022/12/21 04:32:20;;;;;;;1.33;1.00;;;;;;;10.47;100.00;98463.69;5168553;23;20755;-58
2022/12/21 04:34:48;;;;;;;3.67;2.20;;;;;;;10.43;100.00;98470.19;4986012;28;20713;-59
2022/12/21 04:37:32;;;;;;;2.10;0.80;;;;;;;10.45;100.00;98465.63;4982475;28;20241;-58
2022/12/21 04:39:59;;;;;;;4.07;2.60;;;;;;;10.44;100.00;98458.78;4982770;28;20387;-59
2022/12/21 04:42:26;;;;;;;8.00;6.77;;;;;;;10.46;100.00;98461.22;4981188;28;20238;-58
2022/12/21 04:44:53;;;;;;;10.60;9.13;;;;;;;10.43;100.00;98464.13;4966356;28;20235;-59
2022/12/21 04:47:20;;;;;;;6.20;3.80;;;;;;;10.44;100.00;98471.81;4963609;28;20296;-59
2022/12/21 04:49:48;;;;;;;3.00;1.13;;;;;;;10.39;100.00;98468.84;4966361;28;20253;-58
2022/12/21 04:52:14;;;;;;;4.57;3.37;;;;;;;10.41;100.00;98466.06;4963190;28;20689;-57
2022/12/21 04:54:41;;;;;;;5.20;2.63;;;;;;;10.43;100.00;98458.91;4966395;28;20312;-59
2022/12/21 04:57:07;;;;;;;2.77;1.50;;;;;;;10.43;100.00;98457.13;4963486;28;20247;-58
2022/12/21 04:59:34;;;;;;;3.10;2.00;;;;;;;10.47;100.00;98457.63;4966444;28;20241;-58
2022/12/21 05:02:01;;;;;;;3.07;1.40;;;;;;;10.45;100.00;98449.97;4963070;28;21188;-59
2022/12/21 05:04:27;;;;;;;5.47;2.10;;;;;;;10.48;100.00;98454.03;4966634;28;20765;-59
2022/12/21 05:06:55;;;;;;;4.93;1.70;;;;;;;10.48;100.00;98448.81;4962767;28;20233;-59
2022/12/21 05:09:22;;;;;;;2.50;1.80;;;;;;;10.49;100.00;98445.25;4966390;28;20226;-59
2022/12/21 05:11:49;;;;;;;1.83;0.90;;;;;;;10.48;100.00;98443.59;4965833;28;20705;-58
2022/12/21 05:14:16;;;;;;;1.27;1.03;;;;;;;10.45;100.00;98449.97;4963343;28;20238;-59
2022/12/21 05:16:42;;;;;;;0.70;0.70;;;;;;;10.51;100.00;98452.94;4965716;28;20298;-59
2022/12/21 05:19:09;;;;;;;0.90;0.90;;;;;;;10.50;100.00;98459.13;4963266;28;20281;-58
2022/12/21 05:21:36;;;;;;;3.40;1.90;;;;;;;10.51;100.00;98443.28;4965685;28;20234;-58
2022/12/21 05:24:04;;;;;;;2.10;0.90;;;;;;;10.46;100.00;98450.78;4963074;28;20285;-59
2022/12/21 05:26:30;;;;;;;2.30;1.07;;;;;;;10.42;100.00;98442.44;4964909;28;20798;-59
2022/12/21 05:28:57;;;;;;;5.70;4.10;;;;;;;10.41;100.00;98442.59;4962947;28;20233;-59
2022/12/21 05:31:24;;;;;;;3.13;1.53;;;;;;;10.41;100.00;98442.59;4965136;28;20241;-59
2022/12/21 05:33:51;;;;;;;5.53;5.03;;;;;;;10.49;100.00;98445.25;4965765;28;20238;-59
2022/12/21 05:36:18;;;;;;;7.20;6.50;;;;;;;10.53;100.00;98449.19;4963334;28;20277;-58
2022/12/21 05:38:46;;;;;;;2.80;2.60;;;;;;;10.50;100.00;98433.84;4965755;28;20277;-59
2022/12/21 05:41:16;;;;;;;4.97;4.17;;;;;;;10.48;100.00;98439.22;4966102;28;20605;-59
2022/12/21 05:43:42;;;;;;;0.87;0.80;;;;;;;10.46;100.00;98437.72;4968989;28;20277;-59
2022/12/21 05:46:12;;;;;;;2.00;1.80;;;;;;;10.51;100.00;98435.47;4966817;28;20559;-59
2022/12/21 05:48:39;;;;;;;3.70;3.40;;;;;;;10.50;100.00;98443.47;4969773;28;20653;-59
2022/12/21 05:51:07;;;;;;;2.20;1.30;;;;;;;10.51;100.00;98430.25;4966169;28;20237;-58
2022/12/21 05:53:34;;;;;;;1.57;1.10;;;;;;;10.52;100.00;98431.88;4969543;28;20281;-58
2022/12/21 05:56:00;;;;;;;2.80;1.50;;;;;;;10.54;100.00;98436.97;4966032;28;20276;-58
2022/12/21 05:58:28;;;;;;;1.07;0.90;;;;;;;10.52;100.00;98428.47;4969538;28;20237;-58
2022/12/21 06:00:55;;;;;;;6.30;3.77;;;;;;;10.49;100.00;98424.38;4966246;28;20766;-59
2022/12/21 06:03:22;;;;;;;4.73;2.80;;;;;;;10.51;100.00;98419.81;4969352;28;20288;-59
2022/12/21 06:05:48;;;;;;;3.10;1.70;;;;;;;10.52;100.00;98416.22;4968105;28;20241;-60
2022/12/21 06:08:15;;;;;;;3.33;2.30;;;;;;;10.54;100.00;98418.69;4966451;28;20246;-59
2022/12/21 06:10:41;;;;;;;2.20;1.10;;;;;;;10.48;100.00;98422.72;4969286;28;20296;-58
2022/12/21 06:13:08;;;;;;;3.30;1.40;;;;;;;10.54;100.00;98409.06;4965851;28;20292;-58
2022/12/21 06:15:36;;;;;;;2.27;1.20;;;;;;;10.55;100.00;98423.75;4968462;28;20233;-59
2022/12/21 06:18:05;;;;;;;2.90;1.30;;;;;;;10.56;100.00;98424.59;4964210;28;20234;-60
2022/12/21 06:20:33;;;;;;;2.60;1.30;;;;;;;10.55;100.00;98426.34;4967413;28;20672;-59
2022/12/21 06:23:00;;;;;;;2.77;0.80;;;;;;;10.52;100.00;98438.91;4965969;28;20234;-59
2022/12/21 06:25:26;;;;;;;1.83;1.10;;;;;;;10.51;100.00;98445.91;4968374;28;20234;-59
2022/12/21 06:27:53;;;;;;;2.17;1.30;;;;;;;10.50;100.00;98452.09;4968147;28;20235;-58
2022/12/21 06:30:19;;;;;;;1.57;0.90;;;;;;;10.42;100.00;98458.09;4966466;28;20238;-58
2022/12/21 06:32:47;;;;;;;1.40;1.00;;;;;;;10.44;100.00;98474.44;4968510;28;20241;-59
2022/12/21 06:35:14;;;;;;;4.30;1.00;;;;;;;10.44;100.00;98471.81;4965916;28;20325;-58
2022/12/21 06:37:41;;;;;;;1.40;1.00;;;;;;;10.40;100.00;98477.47;4968550;28;20243;-58
2022/12/21 06:40:08;;;;;;;1.47;0.77;;;;;;;10.35;100.00;98477.91;4965819;28;20314;-58
2022/12/21 06:42:35;;;;;;;5.63;1.17;;;;;;;10.33;100.00;98466.81;4968420;28;20244;-62
2022/12/21 06:45:01;;;;;;;2.53;1.47;;;;;;;10.37;100.00;98468.16;4965260;28;20280;-59
2022/12/21 06:47:28;;;;;;;3.73;1.40;;;;;;;10.31;100.00;98466.97;4967825;28;20235;-59
2022/12/21 06:49:56;;;;;;;3.93;1.53;;;;;;;10.26;100.00;98484.06;4965574;28;20233;-59
2022/12/21 06:52:23;;;;;;;4.10;1.30;;;;;;;10.25;100.00;98475.38;4968043;28;20246;-59
2022/12/21 06:54:49;;;;;;;2.70;1.40;;;;;;;10.21;100.00;98483.69;4968439;28;20241;-58
2022/12/21 06:57:16;;;;;;;3.87;1.97;;;;;;;10.17;100.00;98486.59;4965617;28;20226;-58
2022/12/21 06:59:43;;;;;;;4.67;1.53;;;;;;;10.17;100.00;98489.22;4967947;28;20237;-58
2022/12/21 07:02:10;;;;;;;3.33;2.00;;;;;;;10.17;100.00;98491.81;4964712;28;20511;-60
2022/12/21 07:04:37;;;;;;;4.47;1.57;;;;;;;10.18;100.00;98496.06;4966995;28;20237;-58
2022/12/21 07:07:05;;;;;;;6.90;1.67;;;;;;;10.18;100.00;98488.25;4963995;28;20242;-60
2022/12/21 07:09:32;;;;;;;2.73;1.10;;;;;;;10.23;100.00;98485.16;4967140;28;20226;-60
2022/12/21 07:11:59;;;;;;;2.77;1.50;;;;;;;10.14;100.00;98480.84;4964075;28;20324;-60
2022/12/21 07:14:25;;;;;;;6.97;2.93;;;;;;;10.12;100.00;98483.63;4967769;28;20223;-60
2022/12/21 07:16:52;;;;;;;3.17;1.43;;;;;;;10.10;100.00;98472.53;4968092;28;20225;-59
2022/12/21 07:19:18;;;;;;;2.50;1.30;;;;;;;10.08;100.00;98484.06;4964908;28;20255;-59
2022/12/21 07:21:45;;;;;;;3.50;1.37;;;;;;;10.07;100.00;98480.66;4967396;28;20618;-59
2022/12/21 07:24:13;;;;;;;3.23;1.27;;;;;;;10.12;100.00;98488.84;4964446;28;20776;-60
2022/12/21 07:26:40;;;;;;;4.37;1.20;;;;;;;10.15;100.00;98477.28;4967539;28;20242;-58
2022/12/21 07:29:06;;;;;;;3.27;1.07;;;;;;;10.16;100.00;98484.97;4965079;28;20234;-59
2022/12/21 07:31:33;;;;;;;4.10;1.00;;;;;;;10.16;100.00;98476.31;4966701;28;20902;-59
2022/12/21 07:33:59;;;;;;;3.30;1.43;;;;;;;10.17;100.00;98494.41;4964410;28;20854;-60
2022/12/21 07:36:26;;;;;;;8.70;1.40;;;;;;;10.16;100.00;98490.19;4966075;28;20749;-59
2022/12/21 07:38:53;;;;;;;1.80;1.10;;;;;;;10.18;100.00;98503.06;4967498;28;20234;-59
2022/12/21 07:41:21;;;;;;;3.40;1.10;;;;;;;10.24;100.00;98496.44;4965057;28;20288;-59
2022/12/21 07:43:49;;;;;;;3.03;1.00;;;;;;;10.26;100.00;98497.91;4967436;28;20234;-60
2022/12/21 07:46:17;;;;;;;3.03;1.43;;;;;;;10.22;100.00;98495.75;4963190;28;20241;-60
2022/12/21 07:48:43;;;;;;;4.37;1.60;;;;;;;10.17;100.00;98504.03;4967489;28;20452;-60
2022/12/21 07:51:10;;;;;;;3.60;1.40;;;;;;;10.17;100.00;98502.25;4964396;28;20229;-59
2022/12/21 07:53:37;;;;;;;4.13;1.47;;;;;;;10.18;100.00;98510.88;4967450;28;20285;-60
2022/12/21 07:56:06;;;;;;;3.87;1.33;;;;;;;10.14;100.00;98522.56;4964376;28;20568;-59
2022/12/21 07:58:35;;;;;;;3.00;1.30;;;;;;;10.16;100.00;98515.44;4967447;28;20253;-59
2022/12/21 08:01:05;;;;;;;3.30;1.40;;;;;;;10.15;100.00;98516.41;4962757;28;20230;-59
2022/12/21 08:03:32;;;;;;;4.27;1.50;;;;;;;10.13;100.00;98532.22;4966723;28;20642;-60
2022/12/21 08:05:58;;;;;;;5.83;1.40;;;;;;;10.12;100.00;98533.19;4963811;28;20602;-58
2022/12/21 08:08:25;;;;;;;2.93;1.40;;;;;;;10.16;100.00;98531.06;4966488;28;20230;-60
2022/12/21 08:10:52;;;;;;;2.23;1.60;;;;;;;10.13;100.00;98524.38;4965529;28;20218;-60
2022/12/21 08:13:18;;;;;;;5.20;1.60;;;;;;;10.16;100.00;98523.25;4964312;28;20229;-59
2022/12/21 08:15:46;;;;;;;3.80;1.33;;;;;;;10.15;100.00;98538.09;4966587;28;20241;-58
2022/12/21 08:18:13;;;;;;;6.33;1.40;;;;;;;10.11;100.00;98521.09;4964096;28;20637;-59
2022/12/21 08:20:39;;;;;;;2.27;1.10;;;;;;;10.17;100.00;98527.50;4966012;28;20237;-59
2022/12/21 08:23:06;;;;;;;4.10;1.87;;;;;;;10.17;100.00;98507.47;4963355;28;20237;-59
2022/12/21 08:25:32;;;;;;;1.80;1.40;;;;;;;10.14;100.00;98502.56;4966282;28;20288;-59
2022/12/21 08:27:59;;;;;;;2.67;1.30;;;;;;;10.16;100.00;98507.59;4963996;28;20316;-60
2022/12/21 08:30:25;;;;;;;3.10;1.40;;;;;;;10.16;100.00;98528.47;4966058;28;20774;-59
2022/12/21 08:32:53;;;;;;;4.23;1.30;;;;;;;10.11;100.00;98520.28;4965067;28;20229;-59
2022/12/21 08:35:20;;;;;;;1.17;1.03;;;;;;;10.10;100.00;98516.03;4964200;28;20294;-59
2022/12/21 08:37:46;;;;;;;2.60;1.20;;;;;;;10.13;100.00;98500.06;4966064;28;20229;-58
2022/12/21 08:40:13;;;;;;;1.40;1.13;;;;;;;10.19;100.00;98500.31;4963681;28;20239;-60
2022/12/21 08:42:40;;;;;;;1.90;1.30;;;;;;;10.26;100.00;98505.72;4965593;28;20245;-59
2022/12/21 08:45:08;;;;;;;2.80;1.20;;;;;;;10.30;100.00;98495.81;4963145;28;20246;-59
2022/12/21 08:47:34;;;;;;;1.10;0.97;;;;;;;10.33;100.00;98495.53;4965599;28;20242;-59
2022/12/21 08:50:02;;;;;;;3.10;1.37;;;;;;;10.32;100.00;98494.69;4963556;28;20237;-58
2022/12/21 08:52:29;;;;;;;1.97;0.80;;;;;;;10.42;100.00;98492.03;4966442;28;20234;-60
2022/12/21 08:54:56;;;;;;;1.90;1.00;;;;;;;10.54;100.00;98497.78;4963119;28;20234;-60
2022/12/21 08:57:22;;;;;;;3.10;0.70;;;;;;;10.61;100.00;98503.22;4965988;28;20238;-60
2022/12/21 08:59:49;;;;;;;2.60;0.90;;;;;;;10.71;100.00;98508.34;4965866;28;20245;-59
2022/12/21 09:02:16;;;;;;;1.23;0.93;;;;;;;10.82;100.00;98509.84;4962954;28;20297;-60
2022/12/21 09:04:42;;;;;;;1.43;0.90;;;;;;;10.87;100.00;98504.97;4966308;28;20211;-59
2022/12/21 09:07:10;;;;;;;1.00;0.87;;;;;;;10.97;100.00;98513.53;4962584;28;20227;-59
2022/12/21 09:09:38;;;;;;;1.13;0.67;;;;;;;11.09;100.00;98519.31;4965370;28;20230;-59
2022/12/21 09:12:05;;;;;;;1.67;0.60;;;;;;;11.14;100.00;98517.00;4963090;28;20253;-58
2022/12/21 09:14:31;;;;;;;1.73;0.90;;;;;;;11.11;100.00;98524.38;4966458;28;20686;-60
2022/12/21 09:16:58;;;;;;;2.97;1.50;;;;;;;11.04;100.00;98529.41;4962519;28;20782;-58
2022/12/21 09:19:25;;;;;;;25.83;12.63;;;;;;;10.99;100.00;98537.69;4965804;28;20291;-60
2022/12/21 09:21:52;;;;;;;21.30;11.53;;;;;;;11.02;100.00;98539.19;4965062;28;20313;-58
2022/12/21 09:24:20;;;;;;;12.37;6.40;;;;;;;11.17;100.00;98542.03;4960654;28;20589;-59
2022/12/21 09:26:46;;;;;;;3.03;1.20;;;;;;;11.07;100.00;98542.97;4965300;28;20231;-59
2022/12/21 09:29:13;;;;;;;5.23;3.40;;;;;;;11.17;100.00;98557.69;4961590;28;20239;-60
2022/12/21 09:31:40;;;;;;;3.27;1.10;;;;;;;11.24;100.00;98550.88;4965942;28;20235;-59
2022/12/21 09:34:06;;;;;;;1.83;0.80;;;;;;;11.29;100.00;98563.47;4962417;28;20247;-59
2022/12/21 09:36:33;;;;;;;2.83;1.10;;;;;;;11.40;100.00;98565.00;4964173;28;20238;-59
2022/12/21 09:39:00;;;;;;;1.20;1.00;;;;;;;11.41;100.00;98553.56;4962414;28;20242;-60
2022/12/21 09:41:38;;;;;;;2.57;1.10;;;;;;;11.37;100.00;98555.66;4965744;28;20321;-59
2022/12/21 09:44:22;;;;;;;3.33;1.03;;;;;;;11.32;100.00;98565.75;4962413;28;20238;-59
2022/12/21 09:46:52;;;;;;;0.93;0.60;;;;;;;11.40;100.00;98567.59;4965275;28;20511;-59
2022/12/21 09:49:22;;;;;;;1.60;0.70;;;;;;;11.35;100.00;98574.13;4963006;28;20291;-60
2022/12/21 09:51:53;;;;;;;0.83;0.60;;;;;;;11.24;100.00;98571.78;4964374;28;20238;-59
2022/12/21 09:54:23;;;;;;;1.77;0.87;;;;;;;11.34;100.00;98574.25;4958468;28;20239;-59
2022/12/21 09:56:54;;;;;;;3.20;1.20;;;;;;;11.43;100.00;98577.75;4965087;28;20238;-59
2022/12/21 09:59:22;;;;;;;4.37;2.37;;;;;;;11.49;100.00;98567.47;4963094;28;20246;-59
2022/12/21 10:01:57;;;;;;;2.60;0.80;;;;;;;11.45;100.00;98566.13;4964360;28;20793;-60
2022/12/21 10:04:35;;;;;;;2.37;0.60;;;;;;;11.39;100.00;98555.50;4963054;28;20646;-60
2022/12/21 10:07:18;;;;;;;1.10;0.50;;;;;;;11.40;100.00;98551.91;4961256;28;20231;-60
2022/12/21 10:10:00;;;;;;;2.20;0.70;;;;;;;11.37;100.00;98548.66;4964732;28;20226;-60
2022/12/21 10:12:34;;;;;;;2.10;0.90;;;;;;;11.48;100.00;98549.34;4962969;28;20500;-58
2022/12/21 10:15:18;;;;;;;1.30;0.80;;;;;;;11.54;100.00;98558.31;4964309;28;20290;-60
2022/12/21 10:17:56;;;;;;;1.63;0.87;;;;;;;11.65;100.00;98560.66;4967503;28;20239;-60
2022/12/21 10:20:35;;;;;;;4.03;1.00;;;;;;;11.51;100.00;98552.44;4964602;28;20287;-59
2022/12/21 10:23:04;;;;;;;1.73;0.60;;;;;;;11.55;99.67;98555.56;4964934;28;20281;-59
2022/12/21 10:25:40;;;;;;;2.33;0.77;;;;;;;11.71;100.00;98567.03;4956808;28;20246;-60
2022/12/21 10:28:23;;;;;;;1.50;1.20;;;;;;;11.64;98.58;98557.22;4964006;28;20784;-61
2022/12/21 10:30:56;;;;;;;1.30;0.60;;;;;;;11.56;98.93;98562.44;4967532;28;20243;-60
2022/12/21 10:33:24;;;;;;;1.27;0.50;;;;;;;11.53;100.00;98560.13;4965487;28;20226;-58
2022/12/21 10:35:54;;;;;;;2.00;1.60;;;;;;;11.51;100.00;98556.84;4967977;28;20328;-60
2022/12/21 10:38:20;;;;;;;2.17;0.67;;;;;;;11.70;96.50;98547.09;4966164;28;20282;-59
2022/12/21 10:40:52;;;;;;;2.00;0.97;;;;;;;11.71;97.99;98560.00;4966522;28;20285;-59
2022/12/21 10:43:21;;;;;;;3.00;0.83;;;;;;;11.82;96.33;98549.25;4965471;28;22040;-59
2022/12/21 10:45:48;;;;;;;1.37;0.60;;;;;;;11.89;96.42;98551.22;4966976;28;20698;-59
2022/12/21 10:48:15;;;;;;;1.23;0.97;;;;;;;11.95;96.38;98559.22;4965076;28;20235;-59
2022/12/21 10:50:46;;;;;;;4.00;0.90;;;;;;;12.05;94.30;98550.44;4967961;28;20646;-59
2022/12/21 10:53:22;;;;;;;1.77;0.90;;;;;;;12.06;94.54;98549.47;4963689;28;20227;-58
2022/12/21 10:55:50;;;;;;;1.90;0.70;;;;;;;12.06;95.30;98549.47;4967195;28;20222;-59
2022/12/21 10:58:19;;;;;;;2.07;0.90;;;;;;;12.06;93.27;98549.47;4964325;28;20243;-59
2022/12/21 11:00:56;;;;;;;4.10;2.10;;;;;;;12.18;93.76;98542.94;4967781;28;20236;-58
2022/12/21 11:03:26;;;;;;;1.67;0.67;;;;;;;12.07;95.71;98546.69;4963160;28;20227;-59
2022/12/21 11:05:53;;;;;;;1.00;0.50;;;;;;;12.04;93.39;98546.19;4966592;28;20236;-58
2022/12/21 11:08:25;;;;;;;0.93;0.70;;;;;;;11.94;94.06;98541.91;4963651;28;20238;-58
2022/12/21 11:10:53;;;;;;;2.10;0.87;;;;;;;11.89;93.99;98543.38;4965950;28;20595;-58
2022/12/21 11:13:23;;;;;;;2.53;0.70;;;;;;;11.91;95.18;98544.03;4962874;28;20237;-58
2022/12/21 11:15:58;;;;;;;1.97;0.80;;;;;;;11.62;95.81;98546.13;4967065;28;20668;-58
2022/12/21 11:18:36;;;;;;;2.63;0.70;;;;;;;11.76;94.33;98549.06;4964438;28;20239;-58
2022/12/21 11:21:10;;;;;;;2.90;0.60;;;;;;;11.77;93.36;98535.84;4962021;28;20247;-59
2022/12/21 11:23:37;;;;;;;2.27;1.10;;;;;;;11.83;93.95;98534.38;4965778;28;20707;-58
2022/12/21 11:26:03;;;;;;;2.27;0.80;;;;;;;11.77;94.59;98530.59;4962571;28;20234;-59
2022/12/21 11:28:30;;;;;;;1.30;0.70;;;;;;;12.24;94.40;98549.31;4964707;28;20706;-61
2022/12/21 11:31:05;;;;;;;1.10;0.80;;;;;;;12.16;93.69;98538.88;4962298;28;20253;-64
2022/12/21 11:33:33;;;;;;;1.33;0.80;;;;;;;12.04;93.90;98546.19;4965788;28;20225;-61
2022/12/21 11:36:13;;;;;;;1.33;0.90;;;;;;;11.88;94.36;98537.31;4964225;28;20240;-61
2022/12/21 11:38:40;;;;;;;2.60;0.90;;;;;;;11.93;95.14;98540.25;4965267;28;20242;-61
2022/12/21 11:41:20;;;;;;;4.00;2.57;;;;;;;11.88;95.16;98526.84;4964502;28;20241;-59
2022/12/21 11:43:49;;;;;;;3.80;0.90;;;;;;;11.67;96.12;98530.72;4966666;28;20290;-58
2022/12/21 11:46:26;;;;;;;0.80;0.70;;;;;;;11.70;95.62;98528.78;4963303;28;20235;-58
2022/12/21 11:49:04;;;;;;;2.77;0.97;;;;;;;11.60;96.40;98532.38;4966149;28;20274;-57
2022/12/21 11:51:38;;;;;;;4.57;2.30;;;;;;;11.56;97.74;98532.84;4964159;28;20240;-59